Time;durP1;ratioP1;P1;durP2;ratioP2;P2;SDS_P1;SDS_P2;PMS_P1;PMS_P2;Temp;Humidity;BMP_temperature;BMP_pressure;BME280_temperature;BME280_humidity;BME280_pressure;Samples;Min_cycle;Max_cycle;Signal;HPM_P1;HPM_P2
2022/05/02 00:02:19;;;;;;;16.30;15.20;;;9.10;99.90;;;;;;5104098;28;20663;-85
2022/05/02 00:04:46;;;;;;;15.73;14.63;;;8.90;99.90;;;;;;5100639;28;20642;-85
2022/05/02 00:07:15;;;;;;;15.57;14.57;;;9.10;99.90;;;;;;5106493;28;20627;-84
2022/05/02 00:09:42;;;;;;;16.87;15.67;;;9.10;99.90;;;;;;5103573;28;20646;-84
2022/05/02 00:12:09;;;;;;;17.10;15.60;;;9.30;99.90;;;;;;5107080;28;20615;-85
2022/05/02 00:14:36;;;;;;;16.07;14.97;;;9.10;99.90;;;;;;5106708;28;20672;-83
2022/05/02 00:17:03;;;;;;;16.07;14.97;;;9.20;99.90;;;;;;5106370;28;20630;-84
2022/05/02 00:19:30;;;;;;;15.97;14.77;;;9.20;99.90;;;;;;5105886;28;20622;-84
2022/05/02 00:21:56;;;;;;;14.97;13.97;;;9.50;99.90;;;;;;5103600;28;20670;-84
2022/05/02 00:24:25;;;;;;;16.87;15.57;;;9.10;99.90;;;;;;5103917;28;21105;-84
2022/05/02 00:26:51;;;;;;;16.87;15.77;;;9.30;99.90;;;;;;5105750;28;20623;-84
2022/05/02 00:29:18;;;;;;;16.40;15.40;;;9.00;99.90;;;;;;5105541;28;20657;-84
2022/05/02 00:31:45;;;;;;;17.33;16.17;;;9.40;99.90;;;;;;5104867;28;20619;-84
2022/05/02 00:34:12;;;;;;;16.67;15.47;;;9.20;99.90;;;;;;5106234;28;20628;-84
2022/05/02 00:36:39;;;;;;;16.90;15.70;;;9.00;99.90;;;;;;5106103;28;20628;-85
2022/05/02 00:39:06;;;;;;;17.20;16.10;;;9.40;99.90;;;;;;5097911;28;20726;-85
2022/05/02 00:41:34;;;;;;;15.57;14.57;;;8.90;99.90;;;;;;5103900;28;20674;-86
2022/05/02 00:44:01;;;;;;;17.57;16.27;;;9.10;99.90;;;;;;5104176;28;20635;-85
2022/05/02 00:46:28;;;;;;;16.10;15.00;;;9.40;99.90;;;;;;5102518;28;20631;-86
2022/05/02 00:48:55;;;;;;;16.73;15.57;;;9.20;99.90;;;;;;5104354;28;20622;-85
2022/05/02 00:51:22;;;;;;;18.13;16.83;;;9.30;99.90;;;;;;5106370;28;20642;-85
2022/05/02 00:53:51;;;;;;;17.57;16.17;;;9.30;99.90;;;;;;5104819;28;21178;-86
2022/05/02 00:56:20;;;;;;;18.13;16.67;;;9.30;99.90;;;;;;5104629;28;20676;-85
2022/05/02 00:58:49;;;;;;;17.90;16.37;;;9.60;99.90;;;;;;5105335;28;20639;-85
2022/05/02 01:01:16;;;;;;;16.70;15.50;;;9.30;99.90;;;;;;5100963;28;20683;-86
2022/05/02 01:03:43;;;;;;;17.20;16.00;;;9.50;99.90;;;;;;5101581;28;21215;-84
2022/05/02 01:08:55;;;;;;;17.63;16.40;;;9.70;99.90;;;;;;5104892;28;20622;-84
2022/05/02 01:11:22;;;;;;;17.77;16.53;;;9.50;99.90;;;;;;5106892;28;20655;-84
2022/05/02 01:13:51;;;;;;;16.80;15.57;;;9.40;99.90;;;;;;5103140;28;21003;-85
2022/05/02 01:16:21;;;;;;;17.63;16.40;;;9.50;99.90;;;;;;5097571;28;20723;-85
2022/05/02 01:18:50;;;;;;;19.07;17.67;;;9.80;99.90;;;;;;5101410;28;20635;-84
2022/05/02 01:21:20;;;;;;;18.47;17.27;;;9.30;99.90;;;;;;5103053;28;20670;-86
2022/05/02 01:23:50;;;;;;;19.40;18.10;;;9.80;99.90;;;;;;5098385;28;20643;-86
2022/05/02 01:26:17;;;;;;;18.87;17.67;;;9.80;99.90;;;;;;5104068;28;20843;-85
2022/05/02 01:28:47;;;;;;;17.30;16.10;;;9.60;99.90;;;;;;5102936;28;20627;-85
2022/05/02 01:31:15;;;;;;;18.20;17.00;;;9.90;99.90;;;;;;5104525;28;20644;-86
2022/05/02 01:33:43;;;;;;;18.67;17.27;;;9.60;99.90;;;;;;5101751;28;20620;-85
2022/05/02 01:36:09;;;;;;;20.73;19.10;;;9.90;99.90;;;;;;5104493;28;20633;-85
2022/05/02 01:38:38;;;;;;;17.87;16.57;;;9.40;99.90;;;;;;5105280;28;20627;-84
2022/05/02 01:41:05;;;;;;;17.70;16.50;;;9.40;99.90;;;;;;5106297;28;21072;-86
2022/05/02 01:43:33;;;;;;;19.50;18.10;;;9.70;99.90;;;;;;5103363;28;20623;-86
2022/05/02 01:45:59;;;;;;;18.20;17.00;;;9.50;99.90;;;;;;5101415;28;20727;-86
2022/05/02 01:48:27;;;;;;;16.97;15.77;;;9.50;99.90;;;;;;5106683;28;20649;-86
2022/05/02 01:50:53;;;;;;;19.60;17.90;;;9.30;99.90;;;;;;5108229;28;20647;-87
2022/05/02 01:53:20;;;;;;;17.83;16.53;;;9.20;99.90;;;;;;5106386;28;21161;-88
2022/05/02 01:55:49;;;;;;;17.80;16.70;;;9.80;99.90;;;;;;5109956;28;20626;-86
2022/05/02 01:58:16;;;;;;;18.43;16.97;;;9.50;99.90;;;;;;5103266;28;20634;-86
2022/05/02 02:00:43;;;;;;;18.13;16.70;;;9.60;99.90;;;;;;5107405;28;20662;-86
2022/05/02 02:03:09;;;;;;;18.50;16.90;;;9.10;99.90;;;;;;5107371;28;20966;-86
2022/05/02 02:05:51;;;;;;;17.77;16.50;;;9.60;99.90;;;;;;5108144;28;20634;-86
2022/05/02 02:08:19;;;;;;;17.50;16.40;;;9.60;99.90;;;;;;5106515;28;20672;-86
2022/05/02 02:10:47;;;;;;;19.03;17.73;;;9.50;99.90;;;;;;5108375;28;20968;-86
2022/05/02 02:13:15;;;;;;;19.97;18.60;;;9.30;99.90;;;;;;5106149;28;20635;-86
2022/05/02 02:15:42;;;;;;;18.37;17.07;;;9.40;99.90;;;;;;5107542;28;20607;-86
2022/05/02 02:18:10;;;;;;;19.10;17.80;;;9.10;99.90;;;;;;5106963;28;20615;-85
2022/05/02 02:20:37;;;;;;;18.87;17.57;;;9.50;99.90;;;;;;5105062;27;20640;-86
2022/05/02 02:23:05;;;;;;;19.73;18.30;;;9.60;99.90;;;;;;5106913;28;20666;-85
2022/05/02 02:25:32;;;;;;;21.10;19.50;;;9.40;99.90;;;;;;5109374;28;20638;-85
2022/05/02 02:28:00;;;;;;;19.63;18.33;;;9.20;99.90;;;;;;5098562;28;20663;-85
2022/05/02 02:30:28;;;;;;;19.90;18.60;;;9.40;99.90;;;;;;5100599;28;21315;-85
2022/05/02 02:32:55;;;;;;;19.17;17.87;;;9.40;99.90;;;;;;5103034;28;20615;-85
2022/05/02 02:35:21;;;;;;;19.73;18.47;;;9.20;99.90;;;;;;5104499;28;20952;-85
2022/05/02 02:37:48;;;;;;;18.87;17.30;;;9.60;99.90;;;;;;5102326;28;20635;-85
2022/05/02 02:40:15;;;;;;;19.63;18.33;;;9.70;99.90;;;;;;5101228;28;20662;-86
2022/05/02 02:42:42;;;;;;;20.63;19.23;;;9.50;99.90;;;;;;5101868;28;20662;-86
2022/05/02 02:45:10;;;;;;;20.80;19.13;;;9.50;99.90;;;;;;5105213;28;20631;-84
2022/05/02 02:47:39;;;;;;;19.30;18.10;;;9.60;99.90;;;;;;5100129;28;20607;-86
2022/05/02 02:50:07;;;;;;;18.87;17.53;;;9.80;99.90;;;;;;5103974;28;20635;-84
2022/05/02 02:52:33;;;;;;;20.13;18.83;;;9.80;99.90;;;;;;5100936;28;20598;-86
2022/05/02 02:55:00;;;;;;;18.63;17.30;;;9.70;99.90;;;;;;5098994;28;20623;-85
2022/05/02 02:57:27;;;;;;;19.53;17.97;;;9.70;99.90;;;;;;5099223;28;20639;-86
2022/05/02 02:59:54;;;;;;;19.10;17.70;;;9.50;99.90;;;;;;5100667;28;21251;-85
2022/05/02 03:02:21;;;;;;;18.53;17.33;;;9.50;99.90;;;;;;5110077;27;20676;-87
2022/05/02 03:07:34;;;;;;;20.07;18.67;;;9.90;99.90;;;;;;5102985;28;20726;-86
2022/05/02 03:10:01;;;;;;;20.33;19.00;;;10.00;99.90;;;;;;5101928;28;20655;-86
2022/05/02 03:12:28;;;;;;;19.80;18.47;;;9.80;99.90;;;;;;5101075;28;21398;-86
2022/05/02 03:14:54;;;;;;;20.53;19.00;;;9.80;99.90;;;;;;5103872;28;21167;-85
2022/05/02 03:17:21;;;;;;;20.73;19.30;;;10.00;99.90;;;;;;5112100;27;20662;-85
2022/05/02 03:19:49;;;;;;;20.30;18.70;;;9.50;99.90;;;;;;5130928;27;20650;-85
2022/05/02 03:22:16;;;;;;;20.87;19.40;;;9.90;99.90;;;;;;5116592;27;20667;-86
2022/05/02 03:24:50;;;;;;;21.50;19.83;;;9.60;99.90;;;;;;5129654;27;20618;-86
2022/05/02 03:27:16;;;;;;;21.57;19.93;;;10.10;99.90;;;;;;5124757;27;20613;-86
2022/05/02 03:29:44;;;;;;;20.87;19.37;;;9.50;99.90;;;;;;5131644;27;20659;-85
2022/05/02 03:32:11;;;;;;;20.23;18.83;;;9.90;99.90;;;;;;5128406;27;21092;-85
2022/05/02 03:34:38;;;;;;;21.90;20.03;;;9.60;99.90;;;;;;5134437;27;20611;-86
2022/05/02 03:37:06;;;;;;;19.63;18.33;;;9.60;99.90;;;;;;5130892;27;20628;-86
2022/05/02 03:39:33;;;;;;;20.00;18.50;;;9.90;99.90;;;;;;5131690;27;20736;-86
2022/05/02 03:42:00;;;;;;;19.47;18.23;;;9.60;99.90;;;;;;5121348;27;20670;-87
2022/05/02 03:44:27;;;;;;;20.20;18.80;;;10.00;99.90;;;;;;5124611;27;20613;-86
2022/05/02 03:46:54;;;;;;;21.00;19.40;;;9.60;99.90;;;;;;5129049;27;20610;-85
2022/05/02 03:49:20;;;;;;;19.93;18.20;;;9.90;99.90;;;;;;5132284;27;21066;-85
2022/05/02 03:51:47;;;;;;;21.30;19.70;;;10.20;99.90;;;;;;5129701;27;20845;-86
2022/05/02 03:54:15;;;;;;;19.73;18.43;;;9.60;99.90;;;;;;5130226;27;21024;-85
2022/05/02 03:56:42;;;;;;;19.50;18.20;;;9.90;99.90;;;;;;5128334;27;20969;-85
2022/05/02 03:59:08;;;;;;;20.90;19.40;;;10.00;99.90;;;;;;5130447;27;20611;-86
2022/05/02 04:01:36;;;;;;;20.77;19.13;;;9.70;99.90;;;;;;5129968;27;20701;-84
2022/05/02 04:04:03;;;;;;;19.50;18.10;;;9.50;99.90;;;;;;5127676;27;20630;-84
2022/05/02 04:06:30;;;;;;;20.37;18.77;;;10.20;99.90;;;;;;5125072;27;20639;-84
2022/05/02 04:08:57;;;;;;;20.10;18.70;;;9.80;99.90;;;;;;5123604;27;20622;-84
2022/05/02 04:11:25;;;;;;;20.97;19.40;;;9.60;99.90;;;;;;5127880;27;20850;-84
2022/05/02 04:13:52;;;;;;;20.70;19.20;;;10.10;99.90;;;;;;5127185;27;20629;-85
2022/05/02 04:16:19;;;;;;;20.30;18.80;;;9.70;99.90;;;;;;5126967;27;21516;-86
2022/05/02 04:18:46;;;;;;;19.07;17.73;;;9.50;99.90;;;;;;5132323;27;20706;-84
2022/05/02 04:21:13;;;;;;;20.63;19.17;;;9.90;99.90;;;;;;5129609;27;20649;-84
2022/05/02 04:23:40;;;;;;;20.77;19.27;;;9.70;99.90;;;;;;5127955;27;20681;-84
2022/05/02 04:26:07;;;;;;;23.10;21.40;;;9.70;99.90;;;;;;5127415;27;21118;-84
2022/05/02 04:28:35;;;;;;;22.70;21.10;;;9.50;99.90;;;;;;5129894;27;20631;-84
2022/05/02 04:31:02;;;;;;;19.93;18.63;;;9.60;99.90;;;;;;5125669;27;21006;-85
2022/05/02 04:33:32;;;;;;;18.73;17.53;;;9.40;99.90;;;;;;5123226;27;20629;-84
2022/05/02 04:35:58;;;;;;;19.67;18.37;;;9.50;99.90;;;;;;5119399;27;20642;-83
2022/05/02 04:38:26;;;;;;;19.30;17.87;;;9.90;99.90;;;;;;5129500;27;20622;-84
2022/05/02 04:40:53;;;;;;;18.60;17.40;;;9.70;99.90;;;;;;5126706;27;20638;-85
2022/05/02 04:43:20;;;;;;;20.30;18.77;;;9.60;99.90;;;;;;5129670;27;20666;-84
2022/05/02 04:45:48;;;;;;;21.23;19.83;;;9.80;99.90;;;;;;5128223;27;21118;-85
2022/05/02 04:48:15;;;;;;;21.90;20.30;;;9.80;99.90;;;;;;5126943;27;20618;-84
2022/05/02 04:50:42;;;;;;;21.80;20.00;;;9.40;99.90;;;;;;5130743;27;20639;-84
2022/05/02 04:53:08;;;;;;;20.07;18.63;;;9.70;99.90;;;;;;5127561;27;20614;-85
2022/05/02 04:55:35;;;;;;;19.93;18.50;;;9.40;99.90;;;;;;5130137;27;20628;-85
2022/05/02 04:58:02;;;;;;;21.03;19.53;;;9.70;99.90;;;;;;5124390;27;20962;-85
2022/05/02 05:00:29;;;;;;;19.03;17.83;;;9.40;99.90;;;;;;5119658;27;20653;-83
2022/05/02 05:02:57;;;;;;;21.30;19.70;;;9.60;99.90;;;;;;5125594;27;20650;-84
2022/05/02 05:05:24;;;;;;;21.20;19.70;;;9.20;99.90;;;;;;5120468;27;21158;-85
2022/05/02 05:07:50;;;;;;;21.60;20.00;;;9.40;99.90;;;;;;5126301;27;20974;-84
2022/05/02 05:10:17;;;;;;;19.73;18.37;;;9.50;99.90;;;;;;5130445;27;20641;-84
2022/05/02 05:13:03;;;;;;;20.70;18.70;;;9.20;99.90;;;;;;5128533;27;20630;-84
2022/05/02 05:18:50;;;;;;;21.30;19.70;;;9.60;99.90;;;;;;5131256;27;20617;-83
2022/05/02 05:21:29;;;;;;;20.67;19.07;;;9.50;99.90;;;;;;5127736;27;20866;-83
2022/05/02 05:24:35;;;;;;;20.23;18.80;;;9.30;99.90;;;;;;5127092;27;21010;-84
2022/05/02 05:27:17;;;;;;;19.87;18.57;;;9.60;99.90;;;;;;5126967;27;20623;-84
2022/05/02 05:29:52;;;;;;;20.23;18.60;;;9.50;99.90;;;;;;5129332;27;20675;-84
2022/05/02 05:32:28;;;;;;;20.57;19.10;;;9.80;99.90;;;;;;5126862;27;21186;-84
2022/05/02 05:35:04;;;;;;;19.53;18.13;;;9.90;99.90;;;;;;5131621;27;20681;-84
2022/05/02 05:38:04;;;;;;;20.83;19.20;;;9.70;99.90;;;;;;5129551;27;20614;-84
2022/05/02 05:40:35;;;;;;;20.97;19.40;;;9.60;99.90;;;;;;5128298;27;20625;-84
2022/05/02 05:43:14;;;;;;;20.13;18.73;;;9.30;99.90;;;;;;5126095;27;20741;-84
2022/05/02 05:46:13;;;;;;;21.83;19.87;;;9.50;99.90;;;;;;5130866;27;20621;-85
2022/05/02 05:48:51;;;;;;;21.10;19.50;;;9.80;99.90;;;;;;5037766;27;21162;-86
2022/05/02 05:51:31;;;;;;;22.30;20.80;;;9.60;99.90;;;;;;5134321;27;20657;-85
2022/05/02 05:54:11;;;;;;;21.77;20.30;;;9.80;99.90;;;;;;5133728;27;20797;-85
2022/05/02 05:56:51;;;;;;;21.33;19.77;;;10.30;99.90;;;;;;5127893;27;20625;-85
2022/05/02 05:59:28;;;;;;;22.63;20.83;;;10.10;99.90;;;;;;5135664;27;20605;-85
2022/05/02 06:02:05;;;;;;;22.50;20.93;;;10.30;99.90;;;;;;5133201;27;20633;-85
2022/05/02 06:04:34;;;;;;;22.00;20.33;;;10.00;99.90;;;;;;5123310;27;20716;-85
2022/05/02 06:07:03;;;;;;;20.60;19.10;;;10.00;99.90;;;;;;5132887;27;20676;-85
2022/05/02 06:09:32;;;;;;;21.70;20.20;;;10.50;99.90;;;;;;5133464;27;20630;-86
2022/05/02 06:12:00;;;;;;;24.67;22.67;;;10.40;99.90;;;;;;5133178;27;20577;-85
2022/05/02 06:14:30;;;;;;;22.60;21.00;;;10.30;99.90;;;;;;5130085;27;20776;-84
2022/05/02 06:19:45;;;;;;;24.03;21.80;;;10.40;99.90;;;;;;5130804;27;20856;-85
2022/05/02 06:22:17;;;;;;;20.57;19.07;;;10.50;99.90;;;;;;5128185;27;21022;-86
2022/05/02 06:24:46;;;;;;;23.43;21.43;;;10.90;99.90;;;;;;5128379;27;21005;-86
2022/05/02 06:27:14;;;;;;;23.33;21.50;;;11.00;99.90;;;;;;5129690;27;20676;-87
2022/05/02 06:29:42;;;;;;;23.33;21.63;;;10.70;99.90;;;;;;5127503;27;20626;-86
2022/05/02 06:32:11;;;;;;;22.90;21.20;;;10.50;99.90;;;;;;5126821;27;20702;-86
2022/05/02 06:34:41;;;;;;;23.97;22.07;;;11.10;99.90;;;;;;5127836;27;20673;-87
2022/05/02 06:37:32;;;;;;;22.73;21.03;;;11.00;99.90;;;;;;5130102;27;21017;-85
2022/05/02 06:40:07;;;;;;;23.40;21.60;;;11.20;99.90;;;;;;5130967;27;20606;-85
2022/05/02 06:42:39;;;;;;;21.77;20.07;;;11.30;99.90;;;;;;5125178;27;20664;-86
2022/05/02 06:45:29;;;;;;;22.60;20.80;;;11.20;99.90;;;;;;5131612;27;20650;-86
2022/05/02 06:48:15;;;;;;;23.17;21.03;;;11.40;99.90;;;;;;5122799;27;20611;-86
2022/05/02 06:50:47;;;;;;;23.27;21.40;;;11.10;99.90;;;;;;5132090;27;20625;-86
2022/05/02 06:53:33;;;;;;;22.60;20.90;;;11.50;99.90;;;;;;5130000;27;20627;-86
2022/05/02 06:56:06;;;;;;;21.50;19.77;;;11.80;99.90;;;;;;5122895;27;20626;-86
2022/05/02 06:58:42;;;;;;;22.30;20.50;;;11.40;99.90;;;;;;5128202;27;21232;-86
2022/05/02 07:01:23;;;;;;;22.33;20.63;;;12.00;99.90;;;;;;5125761;27;20922;-86
2022/05/02 07:04:03;;;;;;;22.93;21.23;;;11.90;99.90;;;;;;5123928;27;21129;-86
2022/05/02 07:06:46;;;;;;;22.13;20.30;;;11.90;99.90;;;;;;5130794;27;20619;-86
2022/05/02 07:09:22;;;;;;;22.23;20.37;;;12.30;99.90;;;;;;5119834;27;20626;-87
2022/05/02 07:12:04;;;;;;;20.70;19.10;;;12.50;99.90;;;;;;5128376;27;20626;-86
2022/05/02 07:14:39;;;;;;;20.87;19.27;;;12.60;99.90;;;;;;5126751;27;21217;-87
2022/05/02 07:17:14;;;;;;;20.23;18.63;;;12.70;99.90;;;;;;5120980;27;20622;-88
2022/05/02 07:19:49;;;;;;;18.27;16.53;;;12.80;99.90;;;;;;5133508;27;20642;-88
2022/05/02 07:22:26;;;;;;;20.03;18.63;;;13.00;99.90;;;;;;5120847;27;20625;-87
2022/05/02 07:25:04;;;;;;;20.13;18.30;;;13.30;99.90;;;;;;5124800;27;20638;-87
2022/05/02 07:27:54;;;;;;;19.13;17.43;;;13.40;99.90;;;;;;5126568;27;20610;-88
2022/05/02 07:30:22;;;;;;;18.83;17.33;;;13.50;99.90;;;;;;5119169;27;20623;-88
2022/05/02 07:32:50;;;;;;;19.30;17.60;;;13.40;99.90;;;;;;5126332;27;20638;-88
2022/05/02 07:35:17;;;;;;;18.43;17.10;;;13.50;99.90;;;;;;5130639;27;20654;-87
2022/05/02 07:37:45;;;;;;;19.80;18.30;;;13.40;99.90;;;;;;5126583;27;21140;-89
2022/05/02 07:40:14;;;;;;;19.87;18.27;;;13.50;99.90;;;;;;5130465;27;20614;-88
2022/05/02 07:42:44;;;;;;;19.67;18.17;;;13.40;99.90;;;;;;5119814;27;20638;-88
2022/05/02 07:45:14;;;;;;;19.60;17.90;;;13.50;99.90;;;;;;5129919;27;20644;-88
2022/05/02 07:47:43;;;;;;;19.00;17.60;;;13.70;99.90;;;;;;5118958;27;21308;-88
2022/05/02 07:50:11;;;;;;;20.13;18.53;;;13.80;99.90;;;;;;5125902;27;20671;-87
2022/05/02 07:52:40;;;;;;;19.53;17.90;;;14.00;99.90;;;;;;5126625;27;21217;-88
2022/05/02 07:55:09;;;;;;;19.87;18.37;;;14.10;99.90;;;;;;5127453;27;21541;-88
2022/05/02 07:57:39;;;;;;;17.77;16.47;;;14.30;99.90;;;;;;5127162;27;21340;-88
2022/05/02 08:00:08;;;;;;;19.53;18.00;;;14.40;99.90;;;;;;5127649;27;21112;-89
2022/05/02 08:02:36;;;;;;;18.20;16.80;;;14.50;99.90;;;;;;5126716;27;20610;-88
2022/05/02 08:05:04;;;;;;;18.23;16.60;;;14.50;99.90;;;;;;5123558;27;20650;-88
2022/05/02 08:07:33;;;;;;;16.53;15.20;;;14.60;99.90;;;;;;5124153;27;20626;-88
2022/05/02 08:10:35;;;;;;;18.63;17.23;;;14.70;99.90;;;;;;5126195;27;20626;-88
2022/05/02 08:13:16;;;;;;;17.67;16.27;;;14.90;99.90;;;;;;5128986;27;20628;-88
2022/05/02 08:15:50;;;;;;;18.17;16.67;;;15.00;99.90;;;;;;5128309;27;20625;-87
2022/05/02 08:18:42;;;;;;;18.27;16.67;;;15.10;99.90;;;;;;5125686;27;20625;-87
2022/05/02 08:21:17;;;;;;;16.83;15.50;;;15.20;99.90;;;;;;5129660;27;20626;-87
2022/05/02 08:29:57;;;;;;;16.43;15.10;;;15.40;99.90;;;;;;5125133;27;20593;-88
2022/05/02 08:32:34;;;;;;;17.03;15.23;;;15.60;99.90;;;;;;5124034;27;20609;-88
2022/05/02 08:35:07;;;;;;;18.40;16.40;;;15.70;99.90;;;;;;5129504;27;20646;-88
2022/05/02 08:38:15;;;;;;;17.43;15.83;;;15.70;99.90;;;;;;5118984;27;20705;-88
2022/05/02 08:41:27;;;;;;;18.50;16.80;;;15.80;99.90;;;;;;5125616;27;20618;-88
2022/05/02 08:44:21;;;;;;;15.53;14.33;;;15.80;99.90;;;;;;5121846;27;21041;-88
2022/05/02 08:47:18;;;;;;;16.53;15.00;;;15.80;99.90;;;;;;5120365;27;20622;-88
2022/05/02 08:50:17;;;;;;;16.90;15.60;;;16.00;99.90;;;;;;5088387;27;20655;-88
2022/05/02 08:53:20;;;;;;;16.77;15.47;;;16.00;99.90;;;;;;5126531;27;20625;-87
2022/05/02 08:56:26;;;;;;;18.03;16.53;;;16.10;99.90;;;;;;5127483;27;20626;-89
2022/05/02 08:59:13;;;;;;;16.87;15.30;;;16.20;99.90;;;;;;5104890;27;20687;-88
2022/05/02 09:02:27;;;;;;;20.93;19.10;;;16.40;99.90;;;;;;5125448;27;20629;-88
2022/05/02 09:05:42;;;;;;;16.73;15.43;;;16.50;99.90;;;;;;5115535;27;21072;-88
2022/05/02 09:08:40;;;;;;;14.17;12.90;;;16.60;99.90;;;;;;5046323;28;20625;-87
2022/05/02 09:11:31;;;;;;;16.10;14.70;;;16.80;99.90;;;;;;5121233;28;20641;-87
2022/05/02 09:14:31;;;;;;;13.27;12.17;;;17.00;99.90;;;;;;5125161;27;20634;-88
2022/05/02 09:17:34;;;;;;;13.43;12.07;;;17.20;99.90;;;;;;5120467;27;20618;-88
2022/05/02 09:20:19;;;;;;;14.63;13.33;;;17.40;99.90;;;;;;5126311;27;20631;-88
2022/05/02 09:23:24;;;;;;;13.97;12.77;;;17.60;99.90;;;;;;5124323;27;21158;-88
2022/05/02 09:26:19;;;;;;;13.20;12.10;;;17.60;99.90;;;;;;5122668;27;20641;-88
2022/05/02 09:29:03;;;;;;;13.47;12.37;;;17.70;99.90;;;;;;5122720;27;20606;-87
2022/05/02 09:31:50;;;;;;;12.23;11.23;;;17.70;99.90;;;;;;5120186;27;20633;-88
2022/05/02 09:34:24;;;;;;;14.47;12.27;;;17.80;99.90;;;;;;5123543;27;21016;-88
2022/05/02 09:37:03;;;;;;;12.10;11.20;;;17.70;99.90;;;;;;5125934;27;20616;-88
2022/05/02 09:39:45;;;;;;;13.20;11.67;;;17.80;99.90;;;;;;5122955;27;20626;-87
2022/05/02 09:42:29;;;;;;;12.73;11.60;;;17.90;99.90;;;;;;5125471;27;20610;-88
2022/05/02 09:51:17;;;;;;;11.17;10.13;;;18.50;99.90;;;;;;5121757;27;20579;-89
2022/05/02 09:54:04;;;;;;;10.80;9.97;;;18.70;99.90;;;;;;5123608;27;21254;-88
2022/05/02 09:56:39;;;;;;;10.03;9.33;;;18.70;99.90;;;;;;5120333;27;20633;-89
2022/05/02 09:59:09;;;;;;;10.70;9.90;;;18.80;99.90;;;;;;5119890;27;21116;-88
2022/05/02 10:01:42;;;;;;;9.30;8.60;;;18.70;99.90;;;;;;5126640;27;20598;-89
2022/05/02 10:04:31;;;;;;;8.80;8.10;;;18.70;95.90;;;;;;5121707;27;20654;-88
2022/05/02 10:07:06;;;;;;;8.90;8.30;;;18.70;96.60;;;;;;5107010;27;20696;-88
2022/05/02 10:09:53;;;;;;;8.77;8.17;;;18.60;98.00;;;;;;5119958;27;20626;-88
2022/05/02 10:12:31;;;;;;;9.00;8.30;;;18.70;99.70;;;;;;5127359;27;21161;-88
2022/05/02 10:15:06;;;;;;;8.73;8.03;;;18.70;99.90;;;;;;5120965;27;20677;-87
2022/05/02 10:17:52;;;;;;;9.73;8.70;;;18.70;96.60;;;;;;5130082;27;20638;-88
2022/05/02 10:20:21;;;;;;;9.30;8.70;;;18.60;96.20;;;;;;5129795;27;20679;-87
2022/05/02 10:23:03;;;;;;;8.90;8.20;;;18.70;97.00;;;;;;5116673;27;20641;-88
2022/05/02 10:25:36;;;;;;;8.63;8.03;;;18.90;96.10;;;;;;5124437;27;20689;-87
2022/05/02 10:28:17;;;;;;;8.63;7.93;;;18.80;95.40;;;;;;5117983;27;20934;-88
2022/05/02 10:30:54;;;;;;;8.43;7.93;;;18.70;96.60;;;;;;5119728;27;20638;-88
2022/05/02 10:33:31;;;;;;;9.23;8.43;;;18.80;97.60;;;;;;5122486;27;20960;-88
2022/05/02 10:36:00;;;;;;;8.33;7.73;;;18.90;95.70;;;;;;5125634;27;21177;-88
2022/05/02 10:38:31;;;;;;;9.70;8.90;;;19.00;95.20;;;;;;5122857;27;20639;-88
2022/05/02 10:41:08;;;;;;;8.27;7.67;;;19.10;93.90;;;;;;5124022;27;21008;-88
2022/05/02 10:43:37;;;;;;;8.90;8.10;;;19.30;94.50;;;;;;5121843;27;20662;-88
2022/05/02 10:46:04;;;;;;;7.70;7.00;;;19.40;92.10;;;;;;5123987;27;20654;-87
2022/05/02 10:48:43;;;;;;;9.10;7.27;;;19.50;91.70;;;;;;5123193;27;20641;-87
2022/05/02 10:51:19;;;;;;;7.80;6.60;;;19.70;92.80;;;;;;5125085;27;20669;-86
2022/05/02 10:54:08;;;;;;;7.47;6.87;;;19.80;91.00;;;;;;5125810;27;20688;-88
2022/05/02 10:56:41;;;;;;;8.20;7.50;;;19.90;89.80;;;;;;5120332;27;21024;-87
2022/05/02 10:59:11;;;;;;;6.90;6.40;;;20.10;83.20;;;;;;5121934;27;21202;-88
2022/05/02 11:02:08;;;;;;;7.57;7.07;;;20.20;83.60;;;;;;5128914;27;20625;-86
2022/05/02 11:04:57;;;;;;;7.27;6.67;;;20.20;79.70;;;;;;5127016;27;20662;-89
2022/05/02 11:07:29;;;;;;;6.20;5.70;;;20.20;82.70;;;;;;5131025;27;20637;-87
2022/05/02 11:10:07;;;;;;;6.10;5.60;;;20.10;86.60;;;;;;5134417;27;20620;-90
2022/05/02 11:12:40;;;;;;;6.23;5.83;;;20.10;82.30;;;;;;5131979;27;20611;-89
2022/05/02 11:15:10;;;;;;;6.30;5.70;;;20.30;85.00;;;;;;5123899;27;20655;-89
2022/05/02 11:17:56;;;;;;;6.10;5.70;;;20.50;82.70;;;;;;5124575;27;20622;-89
2022/05/02 11:20:46;;;;;;;6.37;5.87;;;20.60;81.90;;;;;;5123056;27;20630;-90
2022/05/02 11:23:55;;;;;;;5.20;4.70;;;20.70;77.80;;;;;;5126036;27;21262;-89
2022/05/02 11:26:33;;;;;;;5.07;4.70;;;20.70;77.00;;;;;;5067176;27;20627;-89
2022/05/02 11:29:08;;;;;;;6.03;5.63;;;20.80;77.90;;;;;;5126381;27;20606;-90
2022/05/02 11:31:40;;;;;;;6.10;5.00;;;21.00;75.30;;;;;;5118261;27;20634;-90
2022/05/02 11:34:19;;;;;;;6.50;6.10;;;21.20;77.80;;;;;;5122062;27;20766;-89
2022/05/02 11:36:53;;;;;;;5.90;5.40;;;21.20;83.70;;;;;;5128337;27;20637;-89
2022/05/02 11:39:26;;;;;;;6.80;6.27;;;21.20;85.20;;;;;;5123524;27;20637;-90
2022/05/02 11:41:58;;;;;;;6.63;6.10;;;21.30;80.90;;;;;;5127581;27;20617;-89
2022/05/02 11:44:32;;;;;;;7.13;6.63;;;21.40;80.20;;;;;;5127811;27;20650;-89
2022/05/02 11:47:08;;;;;;;6.10;5.70;;;21.40;78.50;;;;;;5125572;27;20637;-87
2022/05/02 11:49:51;;;;;;;6.47;5.97;;;21.40;77.00;;;;;;5128568;27;20632;-87
2022/05/02 11:52:31;;;;;;;6.33;5.83;;;21.20;79.60;;;;;;5118544;27;20638;-87
2022/05/02 11:55:01;;;;;;;5.60;5.20;;;21.30;79.30;;;;;;5124014;27;20728;-88
2022/05/02 11:57:36;;;;;;;5.67;5.37;;;21.40;80.10;;;;;;5128691;27;20646;-86
2022/05/02 12:00:07;;;;;;;5.80;5.30;;;21.50;82.70;;;;;;5123779;27;21202;-88
2022/05/02 12:02:51;;;;;;;5.90;5.50;;;21.60;74.40;;;;;;5128306;27;20610;-87
2022/05/02 12:05:31;;;;;;;5.93;5.53;;;21.50;73.20;;;;;;5128018;27;20657;-89
2022/05/02 12:07:59;;;;;;;5.87;5.47;;;21.70;78.70;;;;;;5124105;27;20624;-86
2022/05/02 12:10:40;;;;;;;5.53;5.03;;;21.80;77.30;;;;;;5125349;27;20622;-86
2022/05/02 12:13:12;;;;;;;5.63;5.13;;;22.20;76.10;;;;;;5130890;27;20642;-87
2022/05/02 12:15:59;;;;;;;4.83;4.53;;;22.50;75.00;;;;;;5112347;27;20992;-88
2022/05/02 12:18:48;;;;;;;5.13;4.73;;;22.90;71.40;;;;;;5125304;27;20689;-88
2022/05/02 12:21:21;;;;;;;5.90;5.40;;;23.40;70.20;;;;;;5132674;27;20701;-87
2022/05/02 12:23:49;;;;;;;5.10;4.73;;;23.50;68.90;;;;;;5132350;27;20703;-88
2022/05/02 12:26:19;;;;;;;4.63;4.33;;;23.40;68.70;;;;;;5131655;27;20610;-88
2022/05/02 12:28:51;;;;;;;5.17;4.77;;;23.20;68.40;;;;;;5130548;27;20978;-89
2022/05/02 12:31:20;;;;;;;5.20;4.80;;;22.90;70.60;;;;;;5131296;27;20729;-89
2022/05/02 12:33:55;;;;;;;4.37;4.10;;;22.80;70.30;;;;;;5131021;27;21071;-86
2022/05/02 12:36:26;;;;;;;5.13;4.00;;;22.70;68.40;;;;;;5130076;27;20626;-86
2022/05/02 12:38:55;;;;;;;5.60;5.20;;;22.80;67.10;;;;;;5125996;27;21152;-86
2022/05/02 12:41:26;;;;;;;4.73;4.43;;;22.60;69.90;;;;;;5127230;27;20646;-89
2022/05/02 12:44:03;;;;;;;4.60;4.30;;;22.30;70.40;;;;;;5121564;27;20642;-86
2022/05/02 12:46:38;;;;;;;4.80;4.40;;;22.10;67.90;;;;;;5129386;27;20626;-89
2022/05/02 12:49:06;;;;;;;4.30;3.90;;;22.10;73.20;;;;;;5129611;27;20626;-87
2022/05/02 12:51:33;;;;;;;4.17;3.87;;;22.00;71.00;;;;;;5123908;27;20638;-88
2022/05/02 12:54:12;;;;;;;4.23;4.00;;;22.10;71.20;;;;;;5121675;27;20658;-88
2022/05/02 13:00:30;;;;;;;4.30;4.00;;;22.20;70.80;;;;;;5126814;27;20622;-88
2022/05/02 13:02:34;;;;;;;5.37;4.87;;;23.10;64.20;;;;;;5123307;27;20623;-87
2022/05/02 13:05:06;;;;;;;5.60;4.97;;;23.60;62.50;;;;;;5128145;27;20648;-87
2022/05/02 13:07:49;;;;;;;5.10;4.80;;;23.80;64.60;;;;;;5124267;27;20650;-87
2022/05/02 13:10:18;;;;;;;4.83;4.43;;;24.00;62.50;;;;;;5128707;27;20625;-87
2022/05/02 13:12:58;;;;;;;4.37;4.17;;;23.90;63.40;;;;;;5126926;28;20627;-87
2022/05/02 13:15:27;;;;;;;4.67;4.37;;;23.80;63.40;;;;;;5129132;28;20733;-87
2022/05/02 13:17:58;;;;;;;4.57;4.27;;;23.90;62.50;;;;;;5126536;27;20649;-86
2022/05/02 13:20:27;;;;;;;4.73;3.90;;;23.80;62.40;;;;;;5128385;28;20630;-86
2022/05/02 13:23:03;;;;;;;4.40;4.00;;;23.90;60.90;;;;;;5120626;28;20623;-87
2022/05/02 13:26:02;;;;;;;3.90;3.60;;;23.80;62.00;;;;;;5129114;27;20614;-87
2022/05/02 13:28:39;;;;;;;4.80;4.40;;;24.00;60.50;;;;;;5122485;27;21041;-87
2022/05/02 13:31:16;;;;;;;4.23;4.03;;;24.20;59.20;;;;;;5125803;27;20613;-87
2022/05/02 13:33:49;;;;;;;4.07;3.63;;;24.20;59.10;;;;;;5127662;27;20634;-87
2022/05/02 13:36:16;;;;;;;4.43;4.17;;;24.60;59.50;;;;;;5130616;27;20698;-87
2022/05/02 13:39:00;;;;;;;4.37;3.97;;;25.30;58.60;;;;;;5132823;27;20666;-88